Flight Track Log - Related Links

Times and Time Zones

All times are in EDT time to prevent confusion due to time zone crossing. See the EJA929 flight status page for this flight to view local times or setup timezone preferences in your user account.

Time Position Orientation Groundspeed Altitude Reporting Facility
EDT Latitude Longitude Course Direction KTS MPH feet Rate Location/Type
Fri 07:55:54 AM 41.8000 -87.5833 90° East 252 290 5,000  Level Chicago TRACON
Fri 07:56:48 AM 41.8000 -87.5000 90° East 260 299 5,400 2,000 Climbing Chicago TRACON
Fri 07:57:48 AM 41.7833 -87.3833 101° East 288 331 8,800 2,960 Climbing Chicago TRACON
Fri 07:58:03 AM 41.7875 -87.3803 29° Northeast 287 330 9,100 2,842 Climbing Chicago Center
Fri 07:59:04 AM 41.7794 -87.2694 96° East 300 345 12,400 3,122 Climbing Chicago Center
Fri 08:00:00 AM 41.7529 -86.7297 84° East  Level FlightAware Approximate
Fri 08:00:06 AM 41.7678 -87.1289 96° East 318 366 15,500  Level Chicago Center
Fri 08:01:08 AM 41.7617 -86.9989 94° East 351 404 17,700 1,935 Climbing Chicago Center
Fri 08:02:10 AM 41.7636 -86.8631 89° East 366 421 19,500 2,049 Climbing Chicago Center
Fri 08:03:11 AM 41.7650 -86.7164 89° East 393 452 21,900 2,390 Climbing Chicago Center
Fri 08:04:13 AM 41.7664 -86.5678 89° East 409 471 24,400 2,468 Climbing Chicago Center
Fri 08:05:15 AM 41.7678 -86.4117 89° East 420 483 27,000 2,323 Climbing Chicago Center
Fri 08:06:17 AM 41.7811 -86.2500 84° East 436 502 29,200 2,323 Climbing Chicago Center
Fri 08:07:19 AM 41.7986 -86.0522 83° East 445 512 31,800 2,244 Climbing Chicago Center
Fri 08:08:20 AM 41.8147 -85.8789 83° East 460 529 33,800 1,756 Climbing Chicago Center
Fri 08:09:22 AM 41.8294 -85.7019 84° East 470 541 35,400 1,355 Climbing Chicago Center
Fri 08:10:24 AM 41.8453 -85.5178 83° East 486 559 36,600 1,403 Climbing Chicago Center
Fri 08:11:26 AM 41.8589 -85.3328 84° East 487 560 38,300 1,161 Climbing Chicago Center
Fri 08:12:28 AM 41.8744 -85.1478 83° East 494 568 39,000 339 Climbing Chicago Center
Fri 08:13:30 AM 41.8897 -84.9578 84° East 508 585 39,000  Level Chicago Center
Fri 08:14:32 AM 41.9044 -84.7614 84° East 527 606 39,000  Level Chicago Center
Fri 08:15:34 AM 41.9194 -84.5633 84° East 531 611 39,000  Level Chicago Center
Fri 08:16:36 AM 41.9486 -84.3292 80° East 530 610 39,000  Level Chicago Center
Fri 08:16:59 AM 41.9528 -84.2689 85° East 526 605 39,000  Level Cleveland Center
Fri 08:17:59 AM 41.9778 -84.0747 80° East 526 605 39,000  Level Cleveland Center
Fri 08:19:00 AM 42.0003 -83.8747 81° East 526 605 39,000  Level Cleveland Center
Fri 08:19:59 AM 42.0244 -83.6803 80° East 526 605 39,000  Level Cleveland Center
Fri 08:21:00 AM 42.0489 -83.4606 81° East 537 618 39,000  Level Cleveland Center
Fri 08:22:00 AM 42.0725 -83.2603 81° East 542 624 39,000  Level Cleveland Center
Fri 08:22:59 AM 42.0958 -83.0625 81° East 537 618 39,000  Level Cleveland Center
Fri 08:24:00 AM 42.1189 -82.8561 81° East 543 625 39,000  Level Cleveland Center
Fri 08:24:59 AM 42.1289 -82.6606 86° East 538 619 39,000  Level Cleveland Center
Fri 08:25:59 AM 42.1614 -82.4628 77° East 538 619 39,000  Level Cleveland Center
Fri 08:26:59 AM 42.1831 -82.2672 81° East 538 619 39,000  Level Cleveland Center
Fri 08:28:00 AM 42.2003 -82.0883 83° East 538 619 39,000  Level Cleveland Center
Fri 08:28:59 AM 42.2194 -81.8897 83° East 533 613 39,000  Level Cleveland Center
Fri 08:29:59 AM 42.2403 -81.6939 82° East 540 621 39,000  Level Cleveland Center
Fri 08:31:00 AM 42.2606 -81.4978 82° East 533 613 39,000  Level Cleveland Center
Fri 08:32:00 AM 42.2808 -81.2819 83° East 540 621 39,000  Level Cleveland Center
Fri 08:33:00 AM 42.2986 -81.0828 83° East 540 621 39,000  Level Cleveland Center
Fri 08:33:59 AM 42.3203 -80.8808 82° East 540 621 39,000  Level Cleveland Center
Fri 08:35:00 AM 42.3350 -80.6842 84° East 535 616 39,000  Level Cleveland Center
Fri 08:36:00 AM 42.3539 -80.4878 83° East 535 616 39,000  Level Cleveland Center
Fri 08:37:00 AM 42.3722 -80.2881 83° East 535 616 39,000  Level Cleveland Center
Fri 08:38:00 AM 42.3883 -80.0911 84° East 537 618 39,000  Level Cleveland Center
Fri 08:39:00 AM 42.4042 -79.9139 83° East 532 612 39,000  Level Cleveland Center
Fri 08:40:00 AM 42.4214 -79.7142 83° East 532 612 39,000  Level Cleveland Center
Fri 08:41:00 AM 42.4367 -79.5169 84° East 527 606 39,000  Level Cleveland Center
Fri 08:42:00 AM 42.4511 -79.3197 84° East 527 606 39,000  Level Cleveland Center
Fri 08:43:00 AM 42.4697 -79.1222 83° East 527 606 39,000  Level Cleveland Center
Fri 08:44:00 AM 42.4836 -78.9250 84° East 527 606 39,000  Level Cleveland Center
Fri 08:44:59 AM 42.4975 -78.7303 84° East 527 606 39,000  Level Cleveland Center
Fri 08:46:00 AM 42.5108 -78.5269 85° East 527 606 39,000  Level Cleveland Center
Fri 08:47:00 AM 42.5258 -78.3292 84° East 527 606 39,000  Level Cleveland Center
Fri 08:48:00 AM 42.5383 -78.1344 85° East 522 601 39,000  Level Cleveland Center
Fri 08:49:00 AM 42.5508 -77.9394 85° East 522 601 39,000  Level Cleveland Center
Fri 08:50:00 AM 42.5644 -77.7217 85° East 522 601 39,000  Level Cleveland Center
Fri 08:50:59 AM 42.5781 -77.5267 85° East 522 601 39,000  Level Cleveland Center
Fri 08:53:14 AM 42.6039 -77.0728 85° East 542 624 39,000  Level Boston Center
Fri 08:54:14 AM 42.6161 -76.8703 85° East 536 617 39,000  Level Boston Center
Fri 08:55:14 AM 42.6281 -76.6678 85° East 536 617 39,000 -200 Level Boston Center
Fri 08:56:14 AM 42.6378 -76.4625 86° East 536 617 38,600 -700 Descending Boston Center
Fri 08:57:14 AM 42.6489 -76.2569 86° East 536 617 37,600 -800 Descending Boston Center
Fri 08:58:14 AM 42.6597 -76.0544 86° East 536 617 37,000 -300 Descending Boston Center
Fri 08:59:14 AM 42.6678 -75.8656 87° East 536 617 37,000 -50 Level Boston Center
Fri 09:00:14 AM 42.6778 -75.6600 86° East 541 623 36,900  Descending Boston Center
Fri 09:01:14 AM 42.6878 -75.4542 86° East 546 628 37,000 -550 Climbing Boston Center
Fri 09:02:14 AM 42.6972 -75.2456 86° East 551 634 35,800 -1,950 Descending Boston Center
Fri 09:03:14 AM 42.7039 -75.0481 87° East 545 627 33,100 -2,800 Descending Boston Center
Fri 09:04:14 AM 42.7125 -74.8478 87° East 532 612 30,200 -2,050 Descending Boston Center
Fri 09:05:14 AM 42.7189 -74.6417 88° East 537 618 29,000 -600 Descending Boston Center
Fri 09:06:14 AM 42.7267 -74.4356 87° East 537 618 29,000 -350 Level Boston Center
Fri 09:07:14 AM 42.7344 -74.2322 87° East 532 612 28,300 -1,100 Descending Boston Center
Fri 09:08:14 AM 42.7372 -74.0317 89° East 532 612 26,800 -1,500 Descending Boston Center
Fri 09:09:14 AM 42.7461 -73.8367 86° East 532 612 25,300 -1,500 Descending Boston Center
Fri 09:10:14 AM 42.7817 -73.6508 75° East 519 597 23,800 -1,150 Descending Boston Center
Fri 09:11:14 AM 42.8231 -73.4647 73° East 502 578 23,000 -900 Descending Boston Center
Fri 09:12:14 AM 42.8642 -73.2814 73° East 507 583 22,000 -1,050 Descending Boston Center
Fri 09:13:14 AM 42.9050 -73.0978 73° East 507 583 20,900 -1,200 Descending Boston Center
Fri 09:14:14 AM 42.9433 -72.9025 75° East 499 574 19,600 -950 Descending Boston Center
Fri 09:15:14 AM 42.9794 -72.7408 73° East 494 568 19,000 -350 Descending Boston Center
Fri 09:16:14 AM 43.0172 -72.5678 73° East 488 562 18,900 -1,700 Descending Boston Center
Fri 09:17:14 AM 43.0506 -72.4089 74° East 461 531 15,600 -3,350 Descending Boston Center
Fri 09:18:14 AM 43.0797 -72.2667 74° East 385 443 12,200 -3,150 Descending Boston Center
Fri 09:19:14 AM 43.1025 -72.1586 74° East 332 382 9,300 -1,950 Descending Boston Center
Fri 09:20:14 AM 43.1292 -72.0303 74° East 310 357 8,300 -1,150 Descending Boston Center
Fri 09:21:14 AM 43.1494 -71.9306 74° East 305 351 7,000 -650 Descending Boston Center
Fri 09:22:14 AM 43.1697 -71.8108 77° East 299 344 7,000 -550 Level Boston Center
Fri 09:23:14 AM 43.1217 -71.7575 141° Southeast 217 250 5,900 -1,000 Descending Boston Center
Fri 09:24:14 AM 43.0464 -71.7242 162° South 227 261 5,000 -900 Descending Boston Center
Fri 09:25:14 AM 42.9897 -71.6850 153° Southeast 250 288 4,100 -455 Descending Boston Center
Fri 09:26:26 AM 43.0036 -71.5742 80° East 209 241 4,000 -364 Descending Boston Center
Fri 09:27:26 AM 43.0217 -71.4744 76° East 224 258 3,300 -500 Descending Boston Center
Fri 09:28:26 AM 43.0564 -71.4228 47° Northeast 205 236 3,000 -600 Descending Boston Center
Fri 09:29:26 AM 43.1089 -71.4475 341° North 162 186 2,100 -923 Descending Boston Center
Fri 09:29:44 AM 43.1333 -71.4500 356° North 189 217 1,800 -776 Descending KA90
Fri 09:30:51 AM 43.1667 -71.4833 324° Northwest 154 177 1,000 -716 Descending KA90
Fri 09:33:00 AM 43.2000 -71.5000 336° Northwest  Level FlightAware Approximate
Fri 09:40:00 AM 43.2027 -71.5023 336° Northwest  Level Estimated
Fri 09:41:00 AM 43.2000 -71.5000 336° Northwest  Level FlightAware Approximate

Login

Don't have an account? Register now (free) for customized features, flight alerts, and more!